sensor_id;sensor_type;location;lat;lon;timestamp;pressure;altitude;pressure_sealevel;temperature;humidity
64053;BME280;50299;49.524;8.536;2023-09-08T00:00:14;100660.19;;;13.20;67.57
64053;BME280;50299;49.524;8.536;2023-09-08T00:02:41;100659.59;;;13.14;67.08
64053;BME280;50299;49.524;8.536;2023-09-08T00:05:07;100657.34;;;13.07;67.79
64053;BME280;50299;49.524;8.536;2023-09-08T00:07:34;100655.38;;;12.96;67.35
64053;BME280;50299;49.524;8.536;2023-09-08T00:10:00;100648.97;;;12.95;67.42
64053;BME280;50299;49.524;8.536;2023-09-08T00:12:27;100647.38;;;12.02;71.78
64053;BME280;50299;49.524;8.536;2023-09-08T00:14:53;100654.47;;;12.12;72.09
64053;BME280;50299;49.524;8.536;2023-09-08T00:17:20;100650.13;;;12.52;69.85
64053;BME280;50299;49.524;8.536;2023-09-08T00:19:47;100649.53;;;12.47;71.75
64053;BME280;50299;49.524;8.536;2023-09-08T00:22:13;100655.06;;;12.26;68.86
64053;BME280;50299;49.524;8.536;2023-09-08T00:24:40;100650.13;;;11.72;71.65
64053;BME280;50299;49.524;8.536;2023-09-08T00:27:06;100646.06;;;11.61;72.34
64053;BME280;50299;49.524;8.536;2023-09-08T00:29:32;100650.75;;;11.69;72.44
64053;BME280;50299;49.524;8.536;2023-09-08T00:31:59;100644.25;;;12.03;70.82
64053;BME280;50299;49.524;8.536;2023-09-08T00:34:25;100642.50;;;11.99;70.42
64053;BME280;50299;49.524;8.536;2023-09-08T00:36:52;100640.03;;;12.27;69.62
64053;BME280;50299;49.524;8.536;2023-09-08T00:39:19;100642.72;;;12.15;68.98
64053;BME280;50299;49.524;8.536;2023-09-08T00:41:45;100645.91;;;12.25;69.79
64053;BME280;50299;49.524;8.536;2023-09-08T00:44:12;100645.81;;;12.13;68.68
64053;BME280;50299;49.524;8.536;2023-09-08T00:46:39;100643.63;;;12.27;68.32
64053;BME280;50299;49.524;8.536;2023-09-08T00:49:09;100645.09;;;12.25;67.91
64053;BME280;50299;49.524;8.536;2023-09-08T00:51:37;100650.63;;;12.25;68.10
64053;BME280;50299;49.524;8.536;2023-09-08T00:54:06;100647.69;;;12.30;69.70
64053;BME280;50299;49.524;8.536;2023-09-08T00:56:32;100647.16;;;12.37;72.17
64053;BME280;50299;49.524;8.536;2023-09-08T00:58:59;100651.31;;;12.72;70.92
64053;BME280;50299;49.524;8.536;2023-09-08T01:01:25;100640.28;;;12.85;72.19
64053;BME280;50299;49.524;8.536;2023-09-08T01:03:58;100643.28;;;12.79;69.28
64053;BME280;50299;49.524;8.536;2023-09-08T01:06:24;100642.78;;;12.77;67.32
64053;BME280;50299;49.524;8.536;2023-09-08T01:08:51;100652.47;;;12.92;68.01
64053;BME280;50299;49.524;8.536;2023-09-08T01:11:19;100647.69;;;12.30;67.15
64053;BME280;50299;49.524;8.536;2023-09-08T01:13:46;100643.09;;;12.04;68.96
64053;BME280;50299;49.524;8.536;2023-09-08T01:16:12;100645.81;;;11.83;69.84
64053;BME280;50299;49.524;8.536;2023-09-08T01:18:39;100633.38;;;11.51;71.10
64053;BME280;50299;49.524;8.536;2023-09-08T01:21:29;100632.81;;;12.05;73.91
64053;BME280;50299;49.524;8.536;2023-09-08T01:26:41;100640.34;;;10.93;74.49
64053;BME280;50299;49.524;8.536;2023-09-08T01:29:10;100644.47;;;11.43;71.67
64053;BME280;50299;49.524;8.536;2023-09-08T01:31:37;100642.91;;;11.80;70.12
64053;BME280;50299;49.524;8.536;2023-09-08T01:34:05;100648.63;;;11.10;71.62
64053;BME280;50299;49.524;8.536;2023-09-08T01:36:36;100642.59;;;11.17;71.73
64053;BME280;50299;49.524;8.536;2023-09-08T01:39:03;100649.44;;;11.75;71.04
64053;BME280;50299;49.524;8.536;2023-09-08T01:41:30;100644.69;;;12.14;73.11
64053;BME280;50299;49.524;8.536;2023-09-08T01:43:59;100643.47;;;11.56;69.19
64053;BME280;50299;49.524;8.536;2023-09-08T01:46:26;100640.66;;;11.65;74.49
64053;BME280;50299;49.524;8.536;2023-09-08T01:48:52;100640.38;;;11.96;72.97
64053;BME280;50299;49.524;8.536;2023-09-08T01:51:19;100644.94;;;12.30;79.96
64053;BME280;50299;49.524;8.536;2023-09-08T01:53:45;100637.91;;;12.03;66.94
64053;BME280;50299;49.524;8.536;2023-09-08T01:56:12;100637.34;;;12.18;71.82
64053;BME280;50299;49.524;8.536;2023-09-08T01:58:38;100638.03;;;12.36;68.40
64053;BME280;50299;49.524;8.536;2023-09-08T02:01:05;100645.22;;;12.07;70.04
64053;BME280;50299;49.524;8.536;2023-09-08T02:03:32;100644.38;;;12.37;68.32
64053;BME280;50299;49.524;8.536;2023-09-08T02:05:59;100642.16;;;12.30;66.38
64053;BME280;50299;49.524;8.536;2023-09-08T02:08:27;100642.41;;;12.37;68.58
64053;BME280;50299;49.524;8.536;2023-09-08T02:10:56;100651.44;;;12.25;65.60
64053;BME280;50299;49.524;8.536;2023-09-08T02:13:22;100644.69;;;11.84;70.00
64053;BME280;50299;49.524;8.536;2023-09-08T02:15:49;100645.78;;;12.22;69.62
64053;BME280;50299;49.524;8.536;2023-09-08T02:18:15;100648.75;;;12.38;69.04
64053;BME280;50299;49.524;8.536;2023-09-08T02:20:42;100650.44;;;12.80;86.71
64053;BME280;50299;49.524;8.536;2023-09-08T02:23:08;100645.75;;;12.93;75.24
64053;BME280;50299;49.524;8.536;2023-09-08T02:25:35;100652.88;;;13.15;86.62
64053;BME280;50299;49.524;8.536;2023-09-08T02:28:01;100650.38;;;13.22;72.67
64053;BME280;50299;49.524;8.536;2023-09-08T02:30:28;100646.22;;;12.95;70.22
64053;BME280;50299;49.524;8.536;2023-09-08T02:32:54;100645.91;;;12.76;68.11
64053;BME280;50299;49.524;8.536;2023-09-08T02:35:23;100647.06;;;12.24;66.93
64053;BME280;50299;49.524;8.536;2023-09-08T02:37:58;100641.69;;;11.43;71.39
64053;BME280;50299;49.524;8.536;2023-09-08T02:40:24;100651.19;;;11.80;74.73
64053;BME280;50299;49.524;8.536;2023-09-08T02:42:51;100648.84;;;12.50;81.19
64053;BME280;50299;49.524;8.536;2023-09-08T02:45:20;100650.97;;;12.74;75.01
64053;BME280;50299;49.524;8.536;2023-09-08T02:47:47;100645.97;;;11.40;70.25
64053;BME280;50299;49.524;8.536;2023-09-08T02:50:14;100652.00;;;11.25;72.83
64053;BME280;50299;49.524;8.536;2023-09-08T02:52:40;100646.38;;;10.78;74.52
64053;BME280;50299;49.524;8.536;2023-09-08T02:55:09;100649.94;;;11.04;74.31
64053;BME280;50299;49.524;8.536;2023-09-08T02:57:36;100643.09;;;11.19;74.22
64053;BME280;50299;49.524;8.536;2023-09-08T03:00:04;100646.50;;;10.55;77.53
64053;BME280;50299;49.524;8.536;2023-09-08T03:02:31;100642.28;;;11.19;77.35
64053;BME280;50299;49.524;8.536;2023-09-08T03:04:59;100648.47;;;11.71;84.40
64053;BME280;50299;49.524;8.536;2023-09-08T03:07:27;100646.69;;;12.05;74.09
64053;BME280;50299;49.524;8.536;2023-09-08T03:09:54;100654.41;;;12.20;77.61
64053;BME280;50299;49.524;8.536;2023-09-08T03:12:21;100649.84;;;11.48;69.43
64053;BME280;50299;49.524;8.536;2023-09-08T03:14:48;100652.22;;;11.75;75.20
64053;BME280;50299;49.524;8.536;2023-09-08T03:17:14;100653.66;;;11.81;73.00
64053;BME280;50299;49.524;8.536;2023-09-08T03:19:45;100655.72;;;11.38;71.78
64053;BME280;50299;49.524;8.536;2023-09-08T03:22:12;100652.34;;;11.23;75.05
64053;BME280;50299;49.524;8.536;2023-09-08T03:24:38;100651.06;;;11.12;74.10
64053;BME280;50299;49.524;8.536;2023-09-08T03:27:05;100647.91;;;11.40;73.83
64053;BME280;50299;49.524;8.536;2023-09-08T03:29:31;100650.06;;;11.17;72.82
64053;BME280;50299;49.524;8.536;2023-09-08T03:31:58;100646.69;;;11.02;74.80
64053;BME280;50299;49.524;8.536;2023-09-08T03:34:24;100648.09;;;11.26;78.57
64053;BME280;50299;49.524;8.536;2023-09-08T03:36:53;100653.06;;;11.58;76.96
64053;BME280;50299;49.524;8.536;2023-09-08T03:39:19;100656.34;;;11.99;80.48
64053;BME280;50299;49.524;8.536;2023-09-08T03:41:46;100660.72;;;12.29;82.25
64053;BME280;50299;49.524;8.536;2023-09-08T03:44:12;100660.19;;;12.36;75.61
64053;BME280;50299;49.524;8.536;2023-09-08T03:46:41;100659.41;;;12.56;79.71
64053;BME280;50299;49.524;8.536;2023-09-08T03:49:09;100663.28;;;12.64;74.16
64053;BME280;50299;49.524;8.536;2023-09-08T03:51:35;100664.13;;;12.56;71.75
64053;BME280;50299;49.524;8.536;2023-09-08T03:54:02;100665.28;;;12.55;72.25
64053;BME280;50299;49.524;8.536;2023-09-08T03:56:29;100669.16;;;12.63;72.99
64053;BME280;50299;49.524;8.536;2023-09-08T03:58:58;100662.91;;;12.45;70.99
64053;BME280;50299;49.524;8.536;2023-09-08T04:01:25;100664.25;;;12.09;69.04
64053;BME280;50299;49.524;8.536;2023-09-08T04:03:51;100663.38;;;12.26;82.80
64053;BME280;50299;49.524;8.536;2023-09-08T04:06:17;100668.94;;;12.47;79.63
64053;BME280;50299;49.524;8.536;2023-09-08T04:08:44;100664.72;;;12.41;73.61
64053;BME280;50299;49.524;8.536;2023-09-08T04:11:10;100664.00;;;12.02;66.24
64053;BME280;50299;49.524;8.536;2023-09-08T04:13:37;100664.59;;;11.69;67.38
64053;BME280;50299;49.524;8.536;2023-09-08T04:16:03;100659.38;;;11.68;67.74
64053;BME280;50299;49.524;8.536;2023-09-08T04:18:30;100664.63;;;11.60;67.71
64053;BME280;50299;49.524;8.536;2023-09-08T04:20:56;100669.03;;;11.53;69.83
64053;BME280;50299;49.524;8.536;2023-09-08T04:23:23;100670.66;;;11.54;70.95
64053;BME280;50299;49.524;8.536;2023-09-08T04:25:49;100666.38;;;10.92;74.41
64053;BME280;50299;49.524;8.536;2023-09-08T04:28:16;100663.72;;;11.22;73.83
64053;BME280;50299;49.524;8.536;2023-09-08T04:30:42;100664.41;;;11.27;72.54
64053;BME280;50299;49.524;8.536;2023-09-08T04:33:12;100664.66;;;11.52;75.95
64053;BME280;50299;49.524;8.536;2023-09-08T04:35:38;100676.28;;;11.83;75.83
64053;BME280;50299;49.524;8.536;2023-09-08T04:38:08;100672.91;;;12.07;78.04
64053;BME280;50299;49.524;8.536;2023-09-08T04:40:40;100684.81;;;11.70;69.88
64053;BME280;50299;49.524;8.536;2023-09-08T04:43:07;100684.44;;;11.07;73.43
64053;BME280;50299;49.524;8.536;2023-09-08T04:45:34;100681.72;;;11.63;77.02
64053;BME280;50299;49.524;8.536;2023-09-08T04:48:00;100687.25;;;11.63;69.28
64053;BME280;50299;49.524;8.536;2023-09-08T04:50:27;100677.13;;;11.67;73.49
64053;BME280;50299;49.524;8.536;2023-09-08T04:52:53;100691.06;;;11.96;76.42
64053;BME280;50299;49.524;8.536;2023-09-08T04:55:20;100682.22;;;12.03;70.03
64053;BME280;50299;49.524;8.536;2023-09-08T04:57:46;100687.72;;;11.82;67.90
64053;BME280;50299;49.524;8.536;2023-09-08T05:00:13;100690.69;;;11.51;68.44
64053;BME280;50299;49.524;8.536;2023-09-08T05:02:39;100689.47;;;11.05;68.88
64053;BME280;50299;49.524;8.536;2023-09-08T05:05:08;100688.97;;;11.29;70.07
64053;BME280;50299;49.524;8.536;2023-09-08T05:07:36;100687.34;;;11.19;69.12
64053;BME280;50299;49.524;8.536;2023-09-08T05:10:02;100688.50;;;10.83;70.55
64053;BME280;50299;49.524;8.536;2023-09-08T05:12:29;100688.97;;;10.77;72.03
64053;BME280;50299;49.524;8.536;2023-09-08T05:14:55;100694.03;;;11.27;73.84
64053;BME280;50299;49.524;8.536;2023-09-08T05:17:26;100696.81;;;11.82;85.40
64053;BME280;50299;49.524;8.536;2023-09-08T05:19:52;100701.78;;;12.36;82.21
64053;BME280;50299;49.524;8.536;2023-09-08T05:22:19;100697.75;;;12.54;74.56
64053;BME280;50299;49.524;8.536;2023-09-08T05:24:46;100695.44;;;12.56;72.41
64053;BME280;50299;49.524;8.536;2023-09-08T05:27:12;100701.25;;;12.72;78.47
64053;BME280;50299;49.524;8.536;2023-09-08T05:29:39;100693.66;;;12.81;72.30
64053;BME280;50299;49.524;8.536;2023-09-08T05:32:05;100701.50;;;12.58;69.32
64053;BME280;50299;49.524;8.536;2023-09-08T05:34:35;100705.34;;;12.87;72.70
64053;BME280;50299;49.524;8.536;2023-09-08T05:37:01;100700.63;;;12.67;67.14
64053;BME280;50299;49.524;8.536;2023-09-08T05:39:30;100706.72;;;12.81;73.51
64053;BME280;50299;49.524;8.536;2023-09-08T05:41:59;100712.25;;;13.23;75.29
64053;BME280;50299;49.524;8.536;2023-09-08T05:44:26;100706.59;;;13.31;67.96
64053;BME280;50299;49.524;8.536;2023-09-08T05:46:52;100700.91;;;12.74;66.33
64053;BME280;50299;49.524;8.536;2023-09-08T05:49:19;100704.81;;;13.15;70.41
64053;BME280;50299;49.524;8.536;2023-09-08T05:51:45;100717.41;;;13.66;78.47
64053;BME280;50299;49.524;8.536;2023-09-08T05:54:12;100714.56;;;13.99;71.50
64053;BME280;50299;49.524;8.536;2023-09-08T05:56:39;100712.81;;;14.31;72.68
64053;BME280;50299;49.524;8.536;2023-09-08T05:59:05;100706.31;;;14.64;70.25
64053;BME280;50299;49.524;8.536;2023-09-08T06:01:32;100707.19;;;14.80;74.04
64053;BME280;50299;49.524;8.536;2023-09-08T06:03:59;100708.75;;;15.06;74.04
64053;BME280;50299;49.524;8.536;2023-09-08T06:06:26;100718.75;;;15.35;71.46
64053;BME280;50299;49.524;8.536;2023-09-08T06:08:54;100714.50;;;15.69;75.83
64053;BME280;50299;49.524;8.536;2023-09-08T06:11:21;100716.22;;;15.90;66.61
64053;BME280;50299;49.524;8.536;2023-09-08T06:13:49;100712.91;;;16.00;69.29
64053;BME280;50299;49.524;8.536;2023-09-08T06:16:15;100719.56;;;16.27;71.78
64053;BME280;50299;49.524;8.536;2023-09-08T06:18:42;100718.56;;;16.51;72.93
64053;BME280;50299;49.524;8.536;2023-09-08T06:21:10;100719.44;;;16.71;68.87
64053;BME280;50299;49.524;8.536;2023-09-08T06:23:36;100725.16;;;16.78;64.12
64053;BME280;50299;49.524;8.536;2023-09-08T06:26:03;100724.28;;;16.93;66.75
64053;BME280;50299;49.524;8.536;2023-09-08T06:28:29;100711.16;;;17.13;66.62
64053;BME280;50299;49.524;8.536;2023-09-08T06:30:56;100711.88;;;17.30;70.93
64053;BME280;50299;49.524;8.536;2023-09-08T06:33:22;100722.31;;;17.52;67.51
64053;BME280;50299;49.524;8.536;2023-09-08T06:35:50;100717.88;;;17.70;66.78
64053;BME280;50299;49.524;8.536;2023-09-08T06:38:16;100727.03;;;17.90;69.87
64053;BME280;50299;49.524;8.536;2023-09-08T06:40:43;100723.59;;;18.00;61.46
64053;BME280;50299;49.524;8.536;2023-09-08T06:43:09;100716.97;;;18.09;68.72
64053;BME280;50299;49.524;8.536;2023-09-08T06:45:38;100717.16;;;18.19;59.85
64053;BME280;50299;49.524;8.536;2023-09-08T06:48:05;100731.28;;;18.30;58.68
64053;BME280;50299;49.524;8.536;2023-09-08T06:50:34;100728.81;;;18.25;58.97
64053;BME280;50299;49.524;8.536;2023-09-08T06:53:01;100725.75;;;18.34;58.47
64053;BME280;50299;49.524;8.536;2023-09-08T06:55:27;100724.63;;;18.38;59.15
64053;BME280;50299;49.524;8.536;2023-09-08T06:57:54;100720.69;;;18.69;63.86
64053;BME280;50299;49.524;8.536;2023-09-08T07:00:20;100727.84;;;18.93;59.58
64053;BME280;50299;49.524;8.536;2023-09-08T07:02:47;100721.31;;;19.16;61.67
64053;BME280;50299;49.524;8.536;2023-09-08T07:05:16;100718.06;;;19.10;57.08
64053;BME280;50299;49.524;8.536;2023-09-08T07:07:42;100732.47;;;19.12;55.00
64053;BME280;50299;49.524;8.536;2023-09-08T07:10:09;100719.91;;;19.33;56.86
64053;BME280;50299;49.524;8.536;2023-09-08T07:12:36;100719.38;;;19.50;55.23
64053;BME280;50299;49.524;8.536;2023-09-08T07:15:09;100724.97;;;19.50;56.41
64053;BME280;50299;49.524;8.536;2023-09-08T07:17:36;100719.63;;;19.41;53.17
64053;BME280;50299;49.524;8.536;2023-09-08T07:20:03;100722.94;;;19.47;53.81
64053;BME280;50299;49.524;8.536;2023-09-08T07:22:30;100717.81;;;19.56;55.30
64053;BME280;50299;49.524;8.536;2023-09-08T07:24:57;100710.44;;;19.82;54.84
64053;BME280;50299;49.524;8.536;2023-09-08T07:27:24;100713.09;;;20.08;53.00
64053;BME280;50299;49.524;8.536;2023-09-08T07:29:50;100714.19;;;20.41;56.76
64053;BME280;50299;49.524;8.536;2023-09-08T07:32:20;100717.50;;;20.64;53.53
64053;BME280;50299;49.524;8.536;2023-09-08T07:34:51;100715.69;;;20.93;56.52
64053;BME280;50299;49.524;8.536;2023-09-08T07:37:28;100714.56;;;21.09;51.82
64053;BME280;50299;49.524;8.536;2023-09-08T07:39:54;100716.72;;;21.40;54.18
64053;BME280;50299;49.524;8.536;2023-09-08T07:42:21;100721.97;;;21.63;47.64
64053;BME280;50299;49.524;8.536;2023-09-08T07:44:47;100723.22;;;21.77;48.66
64053;BME280;50299;49.524;8.536;2023-09-08T07:47:14;100722.81;;;21.85;49.02
64053;BME280;50299;49.524;8.536;2023-09-08T07:49:45;100726.47;;;21.97;46.95
64053;BME280;50299;49.524;8.536;2023-09-08T07:52:13;100728.47;;;22.00;45.37
64053;BME280;50299;49.524;8.536;2023-09-08T07:54:39;100727.28;;;21.97;46.24
64053;BME280;50299;49.524;8.536;2023-09-08T07:57:05;100733.25;;;21.88;46.65
64053;BME280;50299;49.524;8.536;2023-09-08T07:59:32;100732.41;;;21.63;47.68
64053;BME280;50299;49.524;8.536;2023-09-08T08:02:03;100728.31;;;21.32;46.79
64053;BME280;50299;49.524;8.536;2023-09-08T08:04:29;100732.78;;;21.40;48.89
64053;BME280;50299;49.524;8.536;2023-09-08T08:06:56;100736.03;;;21.56;44.64
64053;BME280;50299;49.524;8.536;2023-09-08T08:09:22;100728.09;;;21.98;48.00
64053;BME280;50299;49.524;8.536;2023-09-08T08:11:49;100732.50;;;22.27;45.44
64053;BME280;50299;49.524;8.536;2023-09-08T08:14:15;100728.84;;;22.52;44.85
64053;BME280;50299;49.524;8.536;2023-09-08T08:16:42;100730.88;;;22.65;45.31
64053;BME280;50299;49.524;8.536;2023-09-08T08:19:08;100726.81;;;22.74;42.75
64053;BME280;50299;49.524;8.536;2023-09-08T08:21:35;100735.25;;;22.77;45.33
64053;BME280;50299;49.524;8.536;2023-09-08T08:24:01;100736.06;;;22.78;41.00
64053;BME280;50299;49.524;8.536;2023-09-08T08:26:28;100738.50;;;22.69;42.05
64053;BME280;50299;49.524;8.536;2023-09-08T08:28:58;100730.00;;;22.86;41.36
64053;BME280;50299;49.524;8.536;2023-09-08T08:31:25;100732.91;;;22.43;41.28
64053;BME280;50299;49.524;8.536;2023-09-08T08:33:51;100736.13;;;22.38;42.08
64053;BME280;50299;49.524;8.536;2023-09-08T08:36:18;100726.81;;;22.74;44.98
64053;BME280;50299;49.524;8.536;2023-09-08T08:38:44;100723.09;;;23.02;44.89
64053;BME280;50299;49.524;8.536;2023-09-08T08:41:11;100732.63;;;23.40;45.46
64053;BME280;50299;49.524;8.536;2023-09-08T08:43:37;100731.75;;;23.54;41.76
64053;BME280;50299;49.524;8.536;2023-09-08T08:46:05;100725.97;;;23.72;38.71
64053;BME280;50299;49.524;8.536;2023-09-08T08:48:33;100725.84;;;23.93;41.82
64053;BME280;50299;49.524;8.536;2023-09-08T08:51:00;100727.16;;;23.78;40.27
64053;BME280;50299;49.524;8.536;2023-09-08T08:53:28;100718.13;;;24.01;39.14
64053;BME280;50299;49.524;8.536;2023-09-08T08:55:56;100721.84;;;24.39;44.29
64053;BME280;50299;49.524;8.536;2023-09-08T08:58:25;100724.31;;;24.37;36.99
64053;BME280;50299;49.524;8.536;2023-09-08T09:00:53;100727.72;;;24.55;38.27
64053;BME280;50299;49.524;8.536;2023-09-08T09:03:26;100718.53;;;24.48;38.36
64053;BME280;50299;49.524;8.536;2023-09-08T09:05:53;100725.13;;;24.34;36.58
64053;BME280;50299;49.524;8.536;2023-09-08T09:08:22;100722.78;;;24.22;38.05
64053;BME280;50299;49.524;8.536;2023-09-08T09:10:51;100718.19;;;24.42;38.84
64053;BME280;50299;49.524;8.536;2023-09-08T09:13:18;100712.41;;;24.56;38.06
64053;BME280;50299;49.524;8.536;2023-09-08T09:15:44;100721.84;;;24.39;38.05
64053;BME280;50299;49.524;8.536;2023-09-08T09:18:12;100733.63;;;24.27;38.27
64053;BME280;50299;49.524;8.536;2023-09-08T09:20:39;100729.63;;;24.31;37.73
64053;BME280;50299;49.524;8.536;2023-09-08T09:23:07;100727.59;;;24.28;38.08
64053;BME280;50299;49.524;8.536;2023-09-08T09:25:34;100717.63;;;24.58;39.48
64053;BME280;50299;49.524;8.536;2023-09-08T09:28:02;100718.72;;;24.68;36.11
64053;BME280;50299;49.524;8.536;2023-09-08T09:30:49;100719.72;;;24.88;37.69
64053;BME280;50299;49.524;8.536;2023-09-08T09:33:17;100723.81;;;25.18;36.85
64053;BME280;50299;49.524;8.536;2023-09-08T09:35:53;100722.28;;;25.09;37.08
64053;BME280;50299;49.524;8.536;2023-09-08T09:38:21;100727.69;;;25.31;36.44
64053;BME280;50299;49.524;8.536;2023-09-08T09:40:48;100720.25;;;25.44;37.75
64053;BME280;50299;49.524;8.536;2023-09-08T09:43:16;100733.81;;;25.56;40.57
64053;BME280;50299;49.524;8.536;2023-09-08T09:45:43;100725.53;;;25.69;35.71
64053;BME280;50299;49.524;8.536;2023-09-08T09:48:10;100721.56;;;25.90;37.31
64053;BME280;50299;49.524;8.536;2023-09-08T09:50:40;100719.47;;;25.98;37.09
64053;BME280;50299;49.524;8.536;2023-09-08T09:53:15;100717.38;;;26.02;35.55
64053;BME280;50299;49.524;8.536;2023-09-08T09:55:42;100721.19;;;26.15;41.24
64053;BME280;50299;49.524;8.536;2023-09-08T09:58:09;100717.50;;;26.18;35.62
64053;BME280;50299;49.524;8.536;2023-09-08T10:00:37;100715.94;;;26.37;39.45
64053;BME280;50299;49.524;8.536;2023-09-08T10:03:04;100712.88;;;26.51;38.33
64053;BME280;50299;49.524;8.536;2023-09-08T10:05:33;100709.59;;;26.53;36.51
64053;BME280;50299;49.524;8.536;2023-09-08T10:07:59;100708.38;;;26.54;35.46
64053;BME280;50299;49.524;8.536;2023-09-08T10:10:27;100711.22;;;26.74;36.29
64053;BME280;50299;49.524;8.536;2023-09-08T10:13:01;100704.53;;;26.84;33.96
64053;BME280;50299;49.524;8.536;2023-09-08T10:15:30;100701.56;;;26.91;36.65
64053;BME280;50299;49.524;8.536;2023-09-08T10:17:57;100693.13;;;26.88;34.11
64053;BME280;50299;49.524;8.536;2023-09-08T10:20:26;100697.94;;;26.71;33.40
64053;BME280;50299;49.524;8.536;2023-09-08T10:22:59;100696.03;;;26.64;33.39
64053;BME280;50299;49.524;8.536;2023-09-08T10:25:40;100685.06;;;26.66;36.77
64053;BME280;50299;49.524;8.536;2023-09-08T10:28:10;100693.63;;;27.02;34.40
64053;BME280;50299;49.524;8.536;2023-09-08T10:30:36;100685.38;;;27.12;36.50
64053;BME280;50299;49.524;8.536;2023-09-08T10:33:04;100691.63;;;27.39;34.07
64053;BME280;50299;49.524;8.536;2023-09-08T10:35:32;100694.50;;;27.19;31.75
64053;BME280;50299;49.524;8.536;2023-09-08T10:38:28;100692.63;;;27.13;35.19
64053;BME280;50299;49.524;8.536;2023-09-08T10:46:26;100687.59;;;27.20;33.95
64053;BME280;50299;49.524;8.536;2023-09-08T10:48:54;100687.00;;;27.29;32.89
64053;BME280;50299;49.524;8.536;2023-09-08T10:51:22;100687.53;;;26.21;34.53
64053;BME280;50299;49.524;8.536;2023-09-08T10:53:50;100678.16;;;26.67;35.14
64053;BME280;50299;49.524;8.536;2023-09-08T10:56:17;100680.63;;;27.05;34.77
64053;BME280;50299;49.524;8.536;2023-09-08T10:58:51;100687.25;;;27.35;34.89
64053;BME280;50299;49.524;8.536;2023-09-08T11:01:22;100688.19;;;27.48;33.07
64053;BME280;50299;49.524;8.536;2023-09-08T11:03:53;100682.66;;;27.61;32.96
64053;BME280;50299;49.524;8.536;2023-09-08T11:06:21;100677.56;;;27.68;32.46
64053;BME280;50299;49.524;8.536;2023-09-08T11:09:06;100680.25;;;27.75;32.85
64053;BME280;50299;49.524;8.536;2023-09-08T11:11:33;100678.19;;;27.76;34.46
64053;BME280;50299;49.524;8.536;2023-09-08T11:13:59;100662.03;;;27.89;32.61
64053;BME280;50299;49.524;8.536;2023-09-08T11:16:27;100674.25;;;28.06;33.83
64053;BME280;50299;49.524;8.536;2023-09-08T11:18:59;100658.09;;;28.03;32.52
64053;BME280;50299;49.524;8.536;2023-09-08T11:21:30;100663.28;;;28.21;30.67
64053;BME280;50299;49.524;8.536;2023-09-08T11:24:02;100669.59;;;28.12;33.40
64053;BME280;50299;49.524;8.536;2023-09-08T11:26:34;100658.94;;;28.16;34.23
64053;BME280;50299;49.524;8.536;2023-09-08T11:29:01;100665.97;;;28.12;33.29
64053;BME280;50299;49.524;8.536;2023-09-08T11:31:27;100667.63;;;27.93;32.46
64053;BME280;50299;49.524;8.536;2023-09-08T11:33:57;100662.50;;;27.88;34.27
64053;BME280;50299;49.524;8.536;2023-09-08T11:36:25;100656.50;;;28.02;33.60
64053;BME280;50299;49.524;8.536;2023-09-08T11:38:52;100655.22;;;28.19;32.88
64053;BME280;50299;49.524;8.536;2023-09-08T11:41:18;100655.13;;;28.23;31.00
64053;BME280;50299;49.524;8.536;2023-09-08T11:43:49;100645.34;;;28.24;33.05
64053;BME280;50299;49.524;8.536;2023-09-08T11:46:17;100650.88;;;28.15;36.24
64053;BME280;50299;49.524;8.536;2023-09-08T11:48:44;100640.31;;;28.15;35.21
64053;BME280;50299;49.524;8.536;2023-09-08T11:51:10;100645.91;;;28.19;31.42
64053;BME280;50299;49.524;8.536;2023-09-08T11:53:37;100639.19;;;28.25;31.15
64053;BME280;50299;49.524;8.536;2023-09-08T11:56:04;100643.16;;;27.50;34.50
64053;BME280;50299;49.524;8.536;2023-09-08T11:58:31;100643.78;;;27.74;35.92
64053;BME280;50299;49.524;8.536;2023-09-08T12:00:59;100634.47;;;28.06;35.37
64053;BME280;50299;49.524;8.536;2023-09-08T12:03:25;100627.03;;;28.25;33.12
64053;BME280;50299;49.524;8.536;2023-09-08T12:05:52;100630.69;;;28.54;34.50
64053;BME280;50299;49.524;8.536;2023-09-08T12:08:19;100626.41;;;28.75;35.79
64053;BME280;50299;49.524;8.536;2023-09-08T12:10:46;100625.66;;;28.88;30.03
64053;BME280;50299;49.524;8.536;2023-09-08T12:13:12;100626.50;;;29.01;31.69
64053;BME280;50299;49.524;8.536;2023-09-08T12:15:41;100632.53;;;29.03;34.18
64053;BME280;50299;49.524;8.536;2023-09-08T12:18:12;100633.44;;;29.00;33.60
64053;BME280;50299;49.524;8.536;2023-09-08T12:20:39;100631.50;;;28.97;32.26
64053;BME280;50299;49.524;8.536;2023-09-08T12:23:18;100623.31;;;29.24;34.18
64053;BME280;50299;49.524;8.536;2023-09-08T12:25:49;100624.78;;;28.03;32.09
64053;BME280;50299;49.524;8.536;2023-09-08T12:28:17;100617.94;;;28.01;31.95
64053;BME280;50299;49.524;8.536;2023-09-08T12:30:44;100622.19;;;28.09;31.59
64053;BME280;50299;49.524;8.536;2023-09-08T12:33:11;100621.06;;;28.36;30.49
64053;BME280;50299;49.524;8.536;2023-09-08T12:35:42;100619.41;;;28.22;33.02
64053;BME280;50299;49.524;8.536;2023-09-08T12:38:09;100614.16;;;28.78;36.06
64053;BME280;50299;49.524;8.536;2023-09-08T12:40:37;100617.63;;;28.99;32.95
64053;BME280;50299;49.524;8.536;2023-09-08T12:43:05;100620.31;;;28.77;30.59
64053;BME280;50299;49.524;8.536;2023-09-08T12:45:51;100617.09;;;28.75;31.21
64053;BME280;50299;49.524;8.536;2023-09-08T12:48:18;100612.84;;;28.54;33.30
64053;BME280;50299;49.524;8.536;2023-09-08T12:50:44;100615.53;;;28.87;31.25
64053;BME280;50299;49.524;8.536;2023-09-08T12:53:10;100609.63;;;28.94;30.78
64053;BME280;50299;49.524;8.536;2023-09-08T12:55:39;100604.13;;;27.70;31.06
64053;BME280;50299;49.524;8.536;2023-09-08T12:58:06;100608.16;;;28.18;30.93
64053;BME280;50299;49.524;8.536;2023-09-08T13:00:32;100599.56;;;28.64;30.83